sensor_id;sensor_type;location;lat;lon;timestamp;pressure;altitude;pressure_sealevel;temperature;humidity
9893;BME280;4985;49.092;8.542;2024-01-25T00:01:50;100509.50;;;15.42;48.40
9893;BME280;4985;49.092;8.542;2024-01-25T00:04:16;100526.41;;;15.41;48.63
9893;BME280;4985;49.092;8.542;2024-01-25T00:06:41;100510.50;;;15.41;48.56
9893;BME280;4985;49.092;8.542;2024-01-25T00:09:06;100515.81;;;15.41;48.32
9893;BME280;4985;49.092;8.542;2024-01-25T00:11:32;100521.94;;;15.41;48.47
9893;BME280;4985;49.092;8.542;2024-01-25T00:13:58;100525.41;;;15.42;48.76
9893;BME280;4985;49.092;8.542;2024-01-25T00:16:23;100524.59;;;15.41;48.87
9893;BME280;4985;49.092;8.542;2024-01-25T00:18:49;100512.97;;;15.42;48.88
9893;BME280;4985;49.092;8.542;2024-01-25T00:21:14;100523.59;;;15.42;48.92
9893;BME280;4985;49.092;8.542;2024-01-25T00:23:39;100521.78;;;15.43;48.81
9893;BME280;4985;49.092;8.542;2024-01-25T00:26:05;100520.13;;;15.42;49.09
9893;BME280;4985;49.092;8.542;2024-01-25T00:28:30;100524.44;;;15.43;49.13
9893;BME280;4985;49.092;8.542;2024-01-25T00:30:55;100521.59;;;15.44;49.03
9893;BME280;4985;49.092;8.542;2024-01-25T00:33:21;100533.03;;;15.45;48.90
9893;BME280;4985;49.092;8.542;2024-01-25T00:35:46;100527.75;;;15.45;49.02
9893;BME280;4985;49.092;8.542;2024-01-25T00:38:13;100526.75;;;15.46;49.27
9893;BME280;4985;49.092;8.542;2024-01-25T00:40:39;100522.44;;;15.45;49.14
9893;BME280;4985;49.092;8.542;2024-01-25T00:43:05;100524.91;;;15.47;49.07
9893;BME280;4985;49.092;8.542;2024-01-25T00:45:31;100518.78;;;15.46;49.26
9893;BME280;4985;49.092;8.542;2024-01-25T00:47:56;100519.59;;;15.47;49.23
9893;BME280;4985;49.092;8.542;2024-01-25T00:50:22;100516.97;;;15.47;49.36
9893;BME280;4985;49.092;8.542;2024-01-25T00:52:50;100516.97;;;15.47;49.29
9893;BME280;4985;49.092;8.542;2024-01-25T00:55:15;100523.09;;;15.47;49.15
9893;BME280;4985;49.092;8.542;2024-01-25T00:57:41;100515.13;;;15.47;49.22
9893;BME280;4985;49.092;8.542;2024-01-25T01:00:07;100522.09;;;15.48;49.36
9893;BME280;4985;49.092;8.542;2024-01-25T01:02:36;100516.78;;;15.48;49.34
9893;BME280;4985;49.092;8.542;2024-01-25T01:05:04;100515.97;;;15.48;49.39
9893;BME280;4985;49.092;8.542;2024-01-25T01:07:30;100522.94;;;15.49;49.17
9893;BME280;4985;49.092;8.542;2024-01-25T01:09:55;100518.44;;;15.49;49.46
9893;BME280;4985;49.092;8.542;2024-01-25T01:12:21;100512.31;;;15.49;49.40
9893;BME280;4985;49.092;8.542;2024-01-25T01:14:46;100515.78;;;15.49;49.50
9893;BME280;4985;49.092;8.542;2024-01-25T01:17:12;100525.56;;;15.49;49.30
9893;BME280;4985;49.092;8.542;2024-01-25T01:19:37;100527.41;;;15.48;49.56
9893;BME280;4985;49.092;8.542;2024-01-25T01:22:02;100531.06;;;15.47;49.26
9893;BME280;4985;49.092;8.542;2024-01-25T01:24:28;100529.22;;;15.48;49.31
9893;BME280;4985;49.092;8.542;2024-01-25T01:26:53;100538.03;;;15.48;49.37
9893;BME280;4985;49.092;8.542;2024-01-25T01:29:19;100541.50;;;15.49;49.12
9893;BME280;4985;49.092;8.542;2024-01-25T01:31:44;100538.84;;;15.49;49.38
9893;BME280;4985;49.092;8.542;2024-01-25T01:34:10;100548.63;;;15.48;49.13
9893;BME280;4985;49.092;8.542;2024-01-25T01:36:37;100551.94;;;15.50;49.05
9893;BME280;4985;49.092;8.542;2024-01-25T01:39:03;100550.94;;;15.51;49.20
9893;BME280;4985;49.092;8.542;2024-01-25T01:41:28;100540.34;;;15.51;49.25
9893;BME280;4985;49.092;8.542;2024-01-25T01:43:54;100549.00;;;15.53;49.32
9893;BME280;4985;49.092;8.542;2024-01-25T01:46:41;100542.69;;;15.54;49.36
9893;BME280;4985;49.092;8.542;2024-01-25T01:49:08;100541.03;;;15.53;49.33
9893;BME280;4985;49.092;8.542;2024-01-25T01:51:36;100535.53;;;15.55;49.33
9893;BME280;4985;49.092;8.542;2024-01-25T01:54:03;100525.75;;;15.55;48.98
9893;BME280;4985;49.092;8.542;2024-01-25T01:56:31;100523.09;;;15.55;49.11
9893;BME280;4985;49.092;8.542;2024-01-25T01:58:58;100527.41;;;15.56;48.97
9893;BME280;4985;49.092;8.542;2024-01-25T02:01:24;100518.63;;;15.56;49.23
9893;BME280;4985;49.092;8.542;2024-01-25T02:03:51;100530.06;;;15.56;49.25
9893;BME280;4985;49.092;8.542;2024-01-25T02:06:16;100536.22;;;15.57;49.03
9893;BME280;4985;49.092;8.542;2024-01-25T02:08:41;100527.41;;;15.56;48.97
9893;BME280;4985;49.092;8.542;2024-01-25T02:11:07;100540.50;;;15.58;48.98
9893;BME280;4985;49.092;8.542;2024-01-25T02:13:33;100542.34;;;15.57;48.94
9893;BME280;4985;49.092;8.542;2024-01-25T02:16:00;100541.50;;;15.57;49.14
9893;BME280;4985;49.092;8.542;2024-01-25T02:18:26;100542.34;;;15.57;48.80
9893;BME280;4985;49.092;8.542;2024-01-25T02:20:52;100530.06;;;15.56;49.11
9893;BME280;4985;49.092;8.542;2024-01-25T02:23:17;100532.72;;;15.56;48.63
9893;BME280;4985;49.092;8.542;2024-01-25T02:25:42;100523.94;;;15.56;48.83
9893;BME280;4985;49.092;8.542;2024-01-25T02:28:08;100537.03;;;15.57;48.81
9893;BME280;4985;49.092;8.542;2024-01-25T02:30:33;100534.38;;;15.57;48.83
9893;BME280;4985;49.092;8.542;2024-01-25T02:32:58;100547.66;;;15.57;49.03
9893;BME280;4985;49.092;8.542;2024-01-25T02:35:24;100545.81;;;15.58;48.74
9893;BME280;4985;49.092;8.542;2024-01-25T02:37:49;100542.34;;;15.57;48.74
9893;BME280;4985;49.092;8.542;2024-01-25T02:40:16;100543.19;;;15.58;48.78
9893;BME280;4985;49.092;8.542;2024-01-25T02:42:41;100534.22;;;15.59;48.47
9893;BME280;4985;49.092;8.542;2024-01-25T02:45:07;100530.59;;;15.60;48.58
9893;BME280;4985;49.092;8.542;2024-01-25T02:47:33;100540.34;;;15.59;48.27
9893;BME280;4985;49.092;8.542;2024-01-25T02:49:58;100533.25;;;15.60;48.31
9893;BME280;4985;49.092;8.542;2024-01-25T02:52:23;100536.72;;;15.60;48.09
9893;BME280;4985;49.092;8.542;2024-01-25T02:54:49;100531.41;;;15.60;48.29
9893;BME280;4985;49.092;8.542;2024-01-25T02:57:15;100535.03;;;15.59;48.14
9893;BME280;4985;49.092;8.542;2024-01-25T02:59:40;100528.75;;;15.60;48.06
9893;BME280;4985;49.092;8.542;2024-01-25T03:02:06;100532.25;;;15.61;48.11
9893;BME280;4985;49.092;8.542;2024-01-25T03:04:31;100543.69;;;15.61;48.00
9893;BME280;4985;49.092;8.542;2024-01-25T03:06:56;100539.38;;;15.60;48.26
9893;BME280;4985;49.092;8.542;2024-01-25T03:09:22;100539.22;;;15.62;48.15
9893;BME280;4985;49.092;8.542;2024-01-25T03:11:49;100548.88;;;15.63;48.17
9893;BME280;4985;49.092;8.542;2024-01-25T03:14:14;100556.66;;;15.64;48.10
9893;BME280;4985;49.092;8.542;2024-01-25T03:16:40;100552.34;;;15.63;48.03
9893;BME280;4985;49.092;8.542;2024-01-25T03:19:05;100555.66;;;15.65;48.19
9893;BME280;4985;49.092;8.542;2024-01-25T03:21:30;100555.66;;;15.65;48.06
9893;BME280;4985;49.092;8.542;2024-01-25T03:23:56;100558.31;;;15.65;48.02
9893;BME280;4985;49.092;8.542;2024-01-25T03:26:21;100558.31;;;15.65;47.95
9893;BME280;4985;49.092;8.542;2024-01-25T03:28:46;100557.50;;;15.65;47.75
9893;BME280;4985;49.092;8.542;2024-01-25T03:31:12;100565.63;;;15.63;47.65
9893;BME280;4985;49.092;8.542;2024-01-25T03:33:37;100559.31;;;15.64;47.77
9893;BME280;4985;49.092;8.542;2024-01-25T03:36:03;100567.28;;;15.64;47.65
9893;BME280;4985;49.092;8.542;2024-01-25T03:38:29;100561.13;;;15.64;47.58
9893;BME280;4985;49.092;8.542;2024-01-25T03:40:54;100573.59;;;15.63;47.57
9893;BME280;4985;49.092;8.542;2024-01-25T03:43:21;100572.59;;;15.64;47.48
9893;BME280;4985;49.092;8.542;2024-01-25T03:45:48;100569.09;;;15.64;47.49
9893;BME280;4985;49.092;8.542;2024-01-25T03:48:14;100556.81;;;15.63;47.08
9893;BME280;4985;49.092;8.542;2024-01-25T03:50:39;100565.75;;;15.62;47.12
9893;BME280;4985;49.092;8.542;2024-01-25T03:53:05;100564.94;;;15.61;47.31
9893;BME280;4985;49.092;8.542;2024-01-25T03:55:31;100576.53;;;15.60;47.17
9893;BME280;4985;49.092;8.542;2024-01-25T03:57:57;100572.19;;;15.59;47.07
9893;BME280;4985;49.092;8.542;2024-01-25T04:00:22;100578.38;;;15.60;47.25
9893;BME280;4985;49.092;8.542;2024-01-25T04:02:48;100588.13;;;15.59;46.88
9893;BME280;4985;49.092;8.542;2024-01-25T04:05:13;100593.59;;;15.58;46.83
9893;BME280;4985;49.092;8.542;2024-01-25T04:07:39;100597.09;;;15.58;47.02
9893;BME280;4985;49.092;8.542;2024-01-25T04:10:05;100590.94;;;15.58;46.91
9893;BME280;4985;49.092;8.542;2024-01-25T04:12:30;100587.47;;;15.57;46.97
9893;BME280;4985;49.092;8.542;2024-01-25T04:14:57;100578.69;;;15.57;46.72
9893;BME280;4985;49.092;8.542;2024-01-25T04:17:23;100584.81;;;15.57;46.86
9893;BME280;4985;49.092;8.542;2024-01-25T04:19:48;100586.63;;;15.57;46.49
9893;BME280;4985;49.092;8.542;2024-01-25T04:22:14;100584.81;;;15.57;46.55
9893;BME280;4985;49.092;8.542;2024-01-25T04:24:39;100576.19;;;15.55;46.54
9893;BME280;4985;49.092;8.542;2024-01-25T04:27:04;100585.16;;;15.54;46.62
9893;BME280;4985;49.092;8.542;2024-01-25T04:29:30;100565.75;;;15.54;46.39
9893;BME280;4985;49.092;8.542;2024-01-25T04:31:56;100570.22;;;15.53;46.02
9893;BME280;4985;49.092;8.542;2024-01-25T04:34:21;100575.53;;;15.53;46.21
9893;BME280;4985;49.092;8.542;2024-01-25T04:36:47;100573.69;;;15.54;46.17
9893;BME280;4985;49.092;8.542;2024-01-25T04:39:12;100567.56;;;15.53;45.73
9893;BME280;4985;49.092;8.542;2024-01-25T04:41:38;100577.19;;;15.54;45.69
9893;BME280;4985;49.092;8.542;2024-01-25T04:44:03;100576.34;;;15.54;45.54
9893;BME280;4985;49.092;8.542;2024-01-25T04:46:29;100588.78;;;15.53;45.52
9893;BME280;4985;49.092;8.542;2024-01-25T04:49:00;100596.75;;;15.53;45.72
9893;BME280;4985;49.092;8.542;2024-01-25T04:51:26;100594.28;;;15.52;45.64
9893;BME280;4985;49.092;8.542;2024-01-25T04:53:52;100610.03;;;15.53;45.78
9893;BME280;4985;49.092;8.542;2024-01-25T04:56:17;100610.88;;;15.54;46.00
9893;BME280;4985;49.092;8.542;2024-01-25T04:58:42;100609.88;;;15.55;46.00
9893;BME280;4985;49.092;8.542;2024-01-25T05:01:08;100609.69;;;15.56;45.96
9893;BME280;4985;49.092;8.542;2024-01-25T05:03:33;100611.34;;;15.57;46.33
9893;BME280;4985;49.092;8.542;2024-01-25T05:05:59;100619.31;;;15.57;45.81
9893;BME280;4985;49.092;8.542;2024-01-25T05:08:25;100625.28;;;15.59;46.07
9893;BME280;4985;49.092;8.542;2024-01-25T05:10:50;100626.97;;;15.60;46.18
9893;BME280;4985;49.092;8.542;2024-01-25T05:13:16;100630.47;;;15.61;46.26
9893;BME280;4985;49.092;8.542;2024-01-25T05:15:41;100632.94;;;15.62;45.95
9893;BME280;4985;49.092;8.542;2024-01-25T05:18:07;100624.97;;;15.62;46.30
9893;BME280;4985;49.092;8.542;2024-01-25T05:20:32;100630.28;;;15.62;45.95
9893;BME280;4985;49.092;8.542;2024-01-25T05:23:00;100629.31;;;15.63;46.07
9893;BME280;4985;49.092;8.542;2024-01-25T05:25:25;100636.28;;;15.64;46.04
9893;BME280;4985;49.092;8.542;2024-01-25T05:27:51;100638.94;;;15.64;46.02
9893;BME280;4985;49.092;8.542;2024-01-25T05:30:17;100644.25;;;15.64;46.07
9893;BME280;4985;49.092;8.542;2024-01-25T05:32:43;100637.28;;;15.63;46.00
9893;BME280;4985;49.092;8.542;2024-01-25T05:35:08;100638.94;;;15.64;45.85
9893;BME280;4985;49.092;8.542;2024-01-25T05:37:34;100647.91;;;15.63;46.03
9893;BME280;4985;49.092;8.542;2024-01-25T05:39:59;100632.00;;;15.63;45.77
9893;BME280;4985;49.092;8.542;2024-01-25T05:42:25;100633.66;;;15.64;45.88
9893;BME280;4985;49.092;8.542;2024-01-25T05:44:50;100637.28;;;15.63;45.97
9893;BME280;4985;49.092;8.542;2024-01-25T05:47:16;100634.63;;;15.63;45.60
9893;BME280;4985;49.092;8.542;2024-01-25T05:49:41;100616.06;;;15.63;45.64
9893;BME280;4985;49.092;8.542;2024-01-25T05:52:07;100621.38;;;15.63;45.88
9893;BME280;4985;49.092;8.542;2024-01-25T05:54:32;100620.53;;;15.63;45.95
9893;BME280;4985;49.092;8.542;2024-01-25T05:56:58;100625.69;;;15.64;45.65
9893;BME280;4985;49.092;8.542;2024-01-25T05:59:23;100629.31;;;15.63;45.98
9893;BME280;4985;49.092;8.542;2024-01-25T06:01:49;100642.59;;;15.63;45.73
9893;BME280;4985;49.092;8.542;2024-01-25T06:04:14;100644.44;;;15.63;45.99
9893;BME280;4985;49.092;8.542;2024-01-25T06:06:39;100640.91;;;15.62;46.26
9893;BME280;4985;49.092;8.542;2024-01-25T06:09:05;100642.59;;;15.63;46.09
9893;BME280;4985;49.092;8.542;2024-01-25T06:11:31;100646.22;;;15.62;46.30
9893;BME280;4985;49.092;8.542;2024-01-25T06:13:58;100629.31;;;15.63;46.30
9893;BME280;4985;49.092;8.542;2024-01-25T06:16:23;100634.63;;;15.63;46.27
9893;BME280;4985;49.092;8.542;2024-01-25T06:18:49;100642.59;;;15.63;46.24
9893;BME280;4985;49.092;8.542;2024-01-25T06:21:14;100652.41;;;15.63;46.12
9893;BME280;4985;49.092;8.542;2024-01-25T06:23:40;100647.91;;;15.63;46.61
9893;BME280;4985;49.092;8.542;2024-01-25T06:26:05;100649.56;;;15.64;46.26
9893;BME280;4985;49.092;8.542;2024-01-25T06:28:30;100648.75;;;15.64;46.64
9893;BME280;4985;49.092;8.542;2024-01-25T06:30:56;100637.13;;;15.65;46.75
9893;BME280;4985;49.092;8.542;2024-01-25T06:33:21;100632.66;;;15.65;46.77
9893;BME280;4985;49.092;8.542;2024-01-25T06:35:47;100630.81;;;15.66;46.87
9893;BME280;4985;49.092;8.542;2024-01-25T06:38:13;100636.13;;;15.66;46.37
9893;BME280;4985;49.092;8.542;2024-01-25T06:40:38;100630.00;;;15.65;46.37
9893;BME280;4985;49.092;8.542;2024-01-25T06:43:03;100620.38;;;15.64;46.60
9893;BME280;4985;49.092;8.542;2024-01-25T06:45:29;100629.31;;;15.63;46.90
9893;BME280;4985;49.092;8.542;2024-01-25T06:47:54;100624.97;;;15.62;46.82
9893;BME280;4985;49.092;8.542;2024-01-25T06:50:20;100625.84;;;15.63;46.74
9893;BME280;4985;49.092;8.542;2024-01-25T06:52:45;100640.91;;;15.62;46.82
9893;BME280;4985;49.092;8.542;2024-01-25T06:55:10;100648.03;;;15.62;46.94
9893;BME280;4985;49.092;8.542;2024-01-25T06:57:38;100654.19;;;15.62;47.09
9893;BME280;4985;49.092;8.542;2024-01-25T07:00:03;100662.00;;;15.64;47.18
9893;BME280;4985;49.092;8.542;2024-01-25T07:02:29;100669.81;;;15.65;47.50
9893;BME280;4985;49.092;8.542;2024-01-25T07:04:55;100671.31;;;15.68;47.66
9893;BME280;4985;49.092;8.542;2024-01-25T07:07:21;100677.44;;;15.68;47.51
9893;BME280;4985;49.092;8.542;2024-01-25T07:09:46;100679.25;;;15.68;47.45
9893;BME280;4985;49.092;8.542;2024-01-25T07:12:11;100681.91;;;15.68;47.59
9893;BME280;4985;49.092;8.542;2024-01-25T07:14:37;100691.72;;;15.67;47.51
9893;BME280;4985;49.092;8.542;2024-01-25T07:17:02;100688.88;;;15.69;47.76
9893;BME280;4985;49.092;8.542;2024-01-25T07:19:28;100694.19;;;15.69;47.98
9893;BME280;4985;49.092;8.542;2024-01-25T07:21:54;100686.25;;;15.69;47.66
9893;BME280;4985;49.092;8.542;2024-01-25T07:24:19;100688.06;;;15.68;47.67
9893;BME280;4985;49.092;8.542;2024-01-25T07:26:44;100703.00;;;15.69;47.89
9893;BME280;4985;49.092;8.542;2024-01-25T07:29:10;100705.66;;;15.69;48.29
9893;BME280;4985;49.092;8.542;2024-01-25T07:31:35;100703.00;;;15.69;48.04
9893;BME280;4985;49.092;8.542;2024-01-25T07:34:01;100707.31;;;15.70;48.19
9893;BME280;4985;49.092;8.542;2024-01-25T07:36:26;100711.78;;;15.70;48.14
9893;BME280;4985;49.092;8.542;2024-01-25T07:38:51;100702.00;;;15.70;48.16
9893;BME280;4985;49.092;8.542;2024-01-25T07:41:17;100710.97;;;15.69;48.27
9893;BME280;4985;49.092;8.542;2024-01-25T07:43:42;100709.97;;;15.70;48.07
9893;BME280;4985;49.092;8.542;2024-01-25T07:46:08;100711.78;;;15.70;47.96
9893;BME280;4985;49.092;8.542;2024-01-25T07:48:33;100712.63;;;15.70;48.12
9893;BME280;4985;49.092;8.542;2024-01-25T07:50:58;100703.00;;;15.69;48.29
9893;BME280;4985;49.092;8.542;2024-01-25T07:53:24;100715.28;;;15.70;48.42
9893;BME280;4985;49.092;8.542;2024-01-25T07:55:50;100709.78;;;15.72;48.19
9893;BME280;4985;49.092;8.542;2024-01-25T07:58:15;100719.59;;;15.71;48.43
9893;BME280;4985;49.092;8.542;2024-01-25T08:00:41;100710.78;;;15.71;48.41
9893;BME280;4985;49.092;8.542;2024-01-25T08:03:07;100705.47;;;15.71;48.17
9893;BME280;4985;49.092;8.542;2024-01-25T08:05:32;100707.31;;;15.70;48.29
9893;BME280;4985;49.092;8.542;2024-01-25T08:07:58;100708.13;;;15.71;48.63
9893;BME280;4985;49.092;8.542;2024-01-25T08:10:23;100705.66;;;15.69;48.28
9893;BME280;4985;49.092;8.542;2024-01-25T08:12:49;100695.03;;;15.69;48.48
9893;BME280;4985;49.092;8.542;2024-01-25T08:15:14;100693.38;;;15.68;48.60
9893;BME280;4985;49.092;8.542;2024-01-25T08:17:39;100690.72;;;15.68;48.58
9893;BME280;4985;49.092;8.542;2024-01-25T08:20:06;100676.78;;;15.66;48.68
9893;BME280;4985;49.092;8.542;2024-01-25T08:22:31;100685.41;;;15.68;48.51
9893;BME280;4985;49.092;8.542;2024-01-25T08:24:57;100690.88;;;15.67;48.76
9893;BME280;4985;49.092;8.542;2024-01-25T08:27:22;100695.19;;;15.68;48.54
9893;BME280;4985;49.092;8.542;2024-01-25T08:29:48;100693.38;;;15.68;48.75
9893;BME280;4985;49.092;8.542;2024-01-25T08:32:13;100689.06;;;15.67;48.55
9893;BME280;4985;49.092;8.542;2024-01-25T08:34:38;100682.75;;;15.68;48.79
9893;BME280;4985;49.092;8.542;2024-01-25T08:37:04;100686.41;;;15.67;48.71
9893;BME280;4985;49.092;8.542;2024-01-25T08:39:29;100693.38;;;15.68;48.54
9893;BME280;4985;49.092;8.542;2024-01-25T08:41:54;100693.38;;;15.68;48.71
9893;BME280;4985;49.092;8.542;2024-01-25T08:44:22;100695.03;;;15.69;48.82
9893;BME280;4985;49.092;8.542;2024-01-25T08:46:47;100693.38;;;15.68;48.78
9893;BME280;4985;49.092;8.542;2024-01-25T08:49:12;100695.03;;;15.69;48.82
9893;BME280;4985;49.092;8.542;2024-01-25T08:51:38;100694.19;;;15.69;48.83
9893;BME280;4985;49.092;8.542;2024-01-25T08:54:03;100695.84;;;15.70;48.80
9893;BME280;4985;49.092;8.542;2024-01-25T08:56:29;100698.69;;;15.68;49.03
9893;BME280;4985;49.092;8.542;2024-01-25T08:58:55;100704.81;;;15.69;48.96
9893;BME280;4985;49.092;8.542;2024-01-25T09:01:20;100705.66;;;15.69;48.85
9893;BME280;4985;49.092;8.542;2024-01-25T09:03:45;100712.78;;;15.69;49.08
9893;BME280;4985;49.092;8.542;2024-01-25T09:06:11;100718.94;;;15.69;48.82
9893;BME280;4985;49.092;8.542;2024-01-25T09:08:37;100715.44;;;15.69;49.31
9893;BME280;4985;49.092;8.542;2024-01-25T09:11:03;100718.94;;;15.69;49.12
9893;BME280;4985;49.092;8.542;2024-01-25T09:13:28;100717.94;;;15.70;48.95
9893;BME280;4985;49.092;8.542;2024-01-25T09:15:55;100717.94;;;15.70;49.18
9893;BME280;4985;49.092;8.542;2024-01-25T09:18:20;100725.22;;;15.68;49.15
9893;BME280;4985;49.092;8.542;2024-01-25T09:20:46;100724.41;;;15.68;49.19
9893;BME280;4985;49.092;8.542;2024-01-25T09:23:14;100731.53;;;15.67;49.23
9893;BME280;4985;49.092;8.542;2024-01-25T09:25:41;100727.22;;;15.66;49.17
9893;BME280;4985;49.092;8.542;2024-01-25T09:28:07;100742.16;;;15.67;49.47
9893;BME280;4985;49.092;8.542;2024-01-25T09:30:33;100745.63;;;15.68;49.51
9893;BME280;4985;49.092;8.542;2024-01-25T09:32:58;100742.16;;;15.67;49.56
9893;BME280;4985;49.092;8.542;2024-01-25T09:35:23;100741.16;;;15.68;49.29
9893;BME280;4985;49.092;8.542;2024-01-25T09:37:49;100742.81;;;15.69;49.37
9893;BME280;4985;49.092;8.542;2024-01-25T09:40:18;100750.94;;;15.68;49.44
9893;BME280;4985;49.092;8.542;2024-01-25T09:42:46;100749.13;;;15.68;49.44
9893;BME280;4985;49.092;8.542;2024-01-25T09:45:18;100740.31;;;15.68;49.21
9893;BME280;4985;49.092;8.542;2024-01-25T09:47:46;100744.81;;;15.67;49.18
9893;BME280;4985;49.092;8.542;2024-01-25T09:50:12;100742.81;;;15.69;49.55
9893;BME280;4985;49.092;8.542;2024-01-25T09:52:38;100737.50;;;15.69;49.57
9893;BME280;4985;49.092;8.542;2024-01-25T09:55:07;100752.59;;;15.69;49.43
9893;BME280;4985;49.092;8.542;2024-01-25T09:57:35;100748.13;;;15.69;49.55
9893;BME280;4985;49.092;8.542;2024-01-25T10:00:03;100761.56;;;15.68;49.24
9893;BME280;4985;49.092;8.542;2024-01-25T10:02:28;100765.22;;;15.67;49.59
9893;BME280;4985;49.092;8.542;2024-01-25T10:04:54;100769.69;;;15.66;49.16
9893;BME280;4985;49.092;8.542;2024-01-25T10:07:41;100754.75;;;15.65;49.41
9893;BME280;4985;49.092;8.542;2024-01-25T10:10:08;100764.38;;;15.66;49.51
9893;BME280;4985;49.092;8.542;2024-01-25T10:12:34;100764.38;;;15.66;49.76
9893;BME280;4985;49.092;8.542;2024-01-25T10:14:59;100760.75;;;15.67;49.29
9893;BME280;4985;49.092;8.542;2024-01-25T10:17:25;100760.75;;;15.67;49.66
9893;BME280;4985;49.092;8.542;2024-01-25T10:19:51;100764.06;;;15.69;49.19
9893;BME280;4985;49.092;8.542;2024-01-25T10:22:16;100753.44;;;15.69;49.16
9893;BME280;4985;49.092;8.542;2024-01-25T10:24:42;100759.56;;;15.70;49.22
9893;BME280;4985;49.092;8.542;2024-01-25T10:27:07;100765.72;;;15.70;49.42
9893;BME280;4985;49.092;8.542;2024-01-25T10:29:36;100750.63;;;15.71;49.26
9893;BME280;4985;49.092;8.542;2024-01-25T10:32:02;100761.25;;;15.71;49.25
9893;BME280;4985;49.092;8.542;2024-01-25T10:34:28;100759.41;;;15.71;49.33
9893;BME280;4985;49.092;8.542;2024-01-25T10:36:55;100762.91;;;15.72;49.49
9893;BME280;4985;49.092;8.542;2024-01-25T10:39:21;100754.78;;;15.73;49.54
9893;BME280;4985;49.092;8.542;2024-01-25T10:41:47;100743.31;;;15.73;49.18
9893;BME280;4985;49.092;8.542;2024-01-25T10:44:16;100744.16;;;15.73;49.36
9893;BME280;4985;49.092;8.542;2024-01-25T10:46:43;100744.16;;;15.73;48.98
9893;BME280;4985;49.092;8.542;2024-01-25T10:49:11;100742.50;;;15.72;49.14
9893;BME280;4985;49.092;8.542;2024-01-25T10:51:37;100733.41;;;15.75;49.05
9893;BME280;4985;49.092;8.542;2024-01-25T10:54:04;100740.53;;;15.75;48.89
9893;BME280;4985;49.092;8.542;2024-01-25T10:56:32;100735.22;;;15.75;49.22
9893;BME280;4985;49.092;8.542;2024-01-25T10:58:59;100732.56;;;15.75;48.96
9893;BME280;4985;49.092;8.542;2024-01-25T11:01:24;100728.22;;;15.73;49.01
9893;BME280;4985;49.092;8.542;2024-01-25T11:03:51;100729.03;;;15.74;49.23
9893;BME280;4985;49.092;8.542;2024-01-25T11:06:20;100736.88;;;15.76;49.20
9893;BME280;4985;49.092;8.542;2024-01-25T11:08:47;100739.53;;;15.76;49.00
9893;BME280;4985;49.092;8.542;2024-01-25T11:11:14;100741.19;;;15.77;48.92
9893;BME280;4985;49.092;8.542;2024-01-25T11:13:43;100725.44;;;15.75;48.49
9893;BME280;4985;49.092;8.542;2024-01-25T11:18:47;100718.44;;;15.74;48.42
9893;BME280;4985;49.092;8.542;2024-01-25T11:24:05;100707.81;;;15.74;48.73
9893;BME280;4985;49.092;8.542;2024-01-25T11:26:33;100704.19;;;15.75;48.57
9893;BME280;4985;49.092;8.542;2024-01-25T11:28:58;100699.72;;;15.76;48.48
9893;BME280;4985;49.092;8.542;2024-01-25T11:31:26;100704.03;;;15.77;48.30
9893;BME280;4985;49.092;8.542;2024-01-25T11:33:56;100697.06;;;15.76;48.37
9893;BME280;4985;49.092;8.542;2024-01-25T11:36:22;100690.75;;;15.77;48.25
9893;BME280;4985;49.092;8.542;2024-01-25T11:38:47;100696.06;;;15.77;48.12
9893;BME280;4985;49.092;8.542;2024-01-25T11:41:13;100698.53;;;15.78;47.99
9893;BME280;4985;49.092;8.542;2024-01-25T11:43:40;100678.31;;;15.77;47.67
9893;BME280;4985;49.092;8.542;2024-01-25T11:46:05;100680.13;;;15.77;47.48
9893;BME280;4985;49.092;8.542;2024-01-25T11:48:31;100675.94;;;15.74;47.18
9893;BME280;4985;49.092;8.542;2024-01-25T11:50:59;100675.13;;;15.73;47.32
9893;BME280;4985;49.092;8.542;2024-01-25T11:53:24;100678.75;;;15.72;47.02
9893;BME280;4985;49.092;8.542;2024-01-25T11:55:50;100671.63;;;15.73;47.16
9893;BME280;4985;49.092;8.542;2024-01-25T11:58:16;100668.16;;;15.72;47.29
9893;BME280;4985;49.092;8.542;2024-01-25T12:00:41;100664.50;;;15.73;47.35
9893;BME280;4985;49.092;8.542;2024-01-25T12:03:07;100672.31;;;15.75;47.46
9893;BME280;4985;49.092;8.542;2024-01-25T12:05:33;100672.16;;;15.77;47.47
9893;BME280;4985;49.092;8.542;2024-01-25T12:07:59;100664.38;;;15.75;47.37
9893;BME280;4985;49.092;8.542;2024-01-25T12:10:24;100656.41;;;15.75;47.40
9893;BME280;4985;49.092;8.542;2024-01-25T12:12:51;100648.25;;;15.77;47.33
9893;BME280;4985;49.092;8.542;2024-01-25T12:15:16;100642.94;;;15.77;47.24
9893;BME280;4985;49.092;8.542;2024-01-25T12:17:42;100635.66;;;15.79;47.63
9893;BME280;4985;49.092;8.542;2024-01-25T12:20:08;100640.78;;;15.80;47.63
9893;BME280;4985;49.092;8.542;2024-01-25T12:22:37;100632.66;;;15.82;47.57
9893;BME280;4985;49.092;8.542;2024-01-25T12:25:06;100636.97;;;15.83;47.32
9893;BME280;4985;49.092;8.542;2024-01-25T12:27:32;100626.34;;;15.83;47.28
9893;BME280;4985;49.092;8.542;2024-01-25T12:29:58;100635.97;;;15.84;47.62
9893;BME280;4985;49.092;8.542;2024-01-25T12:32:24;100629.84;;;15.83;47.13
9893;BME280;4985;49.092;8.542;2024-01-25T12:34:53;100620.03;;;15.84;47.09
9893;BME280;4985;49.092;8.542;2024-01-25T12:37:19;100617.38;;;15.84;47.34
9893;BME280;4985;49.092;8.542;2024-01-25T12:39:44;100616.38;;;15.85;47.76
9893;BME280;4985;49.092;8.542;2024-01-25T12:42:10;100609.13;;;15.87;47.70
9893;BME280;4985;49.092;8.542;2024-01-25T12:44:35;100614.44;;;15.87;47.48
9893;BME280;4985;49.092;8.542;2024-01-25T12:47:00;100613.44;;;15.88;47.37
9893;BME280;4985;49.092;8.542;2024-01-25T12:49:27;100606.13;;;15.90;47.40
9893;BME280;4985;49.092;8.542;2024-01-25T12:51:54;100606.13;;;15.90;47.61
9893;BME280;4985;49.092;8.542;2024-01-25T12:54:20;100610.59;;;15.89;47.65
9893;BME280;4985;49.092;8.542;2024-01-25T12:56:45;100611.25;;;15.91;47.96
9893;BME280;4985;49.092;8.542;2024-01-25T12:59:10;100604.94;;;15.92;47.87
9893;BME280;4985;49.092;8.542;2024-01-25T13:01:36;100598.81;;;15.92;48.18
9893;BME280;4985;49.092;8.542;2024-01-25T13:04:01;100595.16;;;15.93;48.30
9893;BME280;4985;49.092;8.542;2024-01-25T13:06:26;100583.53;;;15.94;47.81
9893;BME280;4985;49.092;8.542;2024-01-25T13:08:52;100590.66;;;15.93;48.18